createdAt,value
2023-03-20T00:02:07.683Z,28.17
2023-03-20T00:04:37.161Z,33.50
2023-03-20T00:09:33.856Z,23.55
2023-03-20T00:12:02.156Z,27.50
2023-03-20T00:14:30.328Z,28.55
2023-03-20T00:16:58.587Z,29.27
2023-03-20T00:19:29.362Z,30.00
2023-03-20T00:21:59.771Z,30.13
2023-03-20T00:24:27.824Z,31.25
2023-03-20T00:26:56.013Z,31.50
2023-03-20T00:29:26.160Z,32.97
2023-03-20T00:31:55.119Z,31.90
2023-03-20T00:34:25.795Z,22.48
2023-03-20T00:36:55.016Z,30.13
2023-03-20T00:39:24.707Z,24.98
2023-03-20T00:41:56.035Z,27.75
2023-03-20T00:44:27.307Z,28.08
2023-03-20T00:46:57.578Z,25.95
2023-03-20T00:49:28.948Z,33.35
2023-03-20T00:51:58.054Z,29.10
2023-03-20T00:54:27.955Z,30.52
2023-03-20T00:56:59.296Z,29.77
2023-03-20T00:59:31.960Z,27.95
2023-03-20T01:02:00.541Z,26.95
2023-03-20T01:04:36.788Z,27.40
2023-03-20T01:07:08.422Z,29.92
2023-03-20T01:09:37.926Z,31.85
2023-03-20T01:14:36.488Z,32.38
2023-03-20T01:17:04.803Z,32.30
2023-03-20T01:19:32.861Z,30.40
2023-03-20T01:22:02.779Z,29.50
2023-03-20T01:24:30.927Z,29.15
2023-03-20T01:27:03.643Z,30.13
2023-03-20T01:29:33.137Z,29.92
2023-03-20T01:34:29.258Z,33.90
2023-03-20T01:36:59.218Z,33.70
2023-03-20T01:39:33.590Z,30.48
2023-03-20T01:42:05.751Z,29.35
2023-03-20T01:44:36.417Z,30.77
2023-03-20T01:47:13.210Z,28.13
2023-03-20T01:50:22.254Z,36.63
2023-03-20T01:52:53.317Z,31.85
2023-03-20T01:55:22.900Z,29.48
2023-03-20T02:00:23.893Z,27.05
2023-03-20T02:02:52.083Z,30.23
2023-03-20T02:05:23.020Z,29.80
2023-03-20T02:08:03.020Z,31.75
2023-03-20T02:10:32.056Z,29.55
2023-03-20T02:13:04.169Z,29.58
2023-03-20T02:15:33.269Z,30.27
2023-03-20T02:18:01.673Z,31.08
2023-03-20T02:20:46.988Z,31.00
2023-03-20T02:23:56.317Z,30.85
2023-03-20T02:26:40.118Z,28.33
2023-03-20T02:29:30.358Z,30.38
2023-03-20T02:32:33.959Z,31.23
2023-03-20T02:35:35.946Z,25.60
2023-03-20T02:38:27.245Z,28.27
2023-03-20T02:41:03.333Z,27.27
2023-03-20T02:43:42.328Z,27.50
2023-03-20T02:46:19.747Z,27.70
2023-03-20T02:48:55.625Z,27.20
2023-03-20T02:51:33.417Z,25.08
2023-03-20T02:54:09.071Z,27.02
2023-03-20T02:56:44.801Z,21.42
2023-03-20T02:59:21.801Z,23.05
2023-03-20T03:01:55.595Z,22.35
2023-03-20T03:04:27.392Z,21.85
2023-03-20T03:06:59.318Z,20.98
2023-03-20T03:09:32.922Z,19.52
2023-03-20T03:12:05.841Z,24.73
2023-03-20T03:14:38.795Z,22.42
2023-03-20T03:17:09.583Z,25.02
2023-03-20T03:19:39.819Z,24.50
2023-03-20T03:22:08.748Z,29.88
2023-03-20T03:24:41.896Z,22.13
2023-03-20T03:27:18.518Z,27.10
2023-03-20T03:29:51.484Z,21.02
2023-03-20T03:32:30.448Z,27.40
2023-03-20T03:35:00.719Z,25.60
2023-03-20T03:37:40.849Z,22.05
2023-03-20T03:40:21.477Z,29.73
2023-03-20T03:42:57.095Z,22.23
2023-03-20T03:45:31.506Z,20.88
2023-03-20T03:48:05.817Z,24.75
2023-03-20T03:50:38.785Z,25.38
2023-03-20T03:53:11.953Z,23.20
2023-03-20T03:55:44.930Z,20.52
2023-03-20T03:58:16.677Z,24.90
2023-03-20T04:00:47.959Z,24.98
2023-03-20T04:03:17.254Z,26.77
2023-03-20T04:05:47.390Z,25.05
2023-03-20T04:08:16.280Z,26.90
2023-03-20T04:10:45.999Z,24.88
2023-03-20T04:13:14.078Z,25.20
2023-03-20T04:15:42.431Z,24.63
2023-03-20T04:18:17.242Z,26.92
2023-03-20T04:20:45.683Z,24.17
2023-03-20T04:23:14.037Z,23.13
2023-03-20T04:25:42.611Z,20.25
2023-03-20T04:28:16.201Z,21.17
2023-03-20T04:30:48.174Z,21.20
2023-03-20T04:33:16.463Z,20.98
2023-03-20T04:35:44.662Z,21.20
2023-03-20T04:38:12.892Z,19.02
2023-03-20T04:40:41.255Z,22.52
2023-03-20T04:43:09.315Z,23.02
2023-03-20T04:45:39.495Z,20.48
2023-03-20T04:48:08.362Z,19.88
2023-03-20T04:50:36.481Z,19.48
2023-03-20T04:53:04.518Z,20.38
2023-03-20T04:55:32.678Z,22.55
2023-03-20T04:58:00.912Z,22.98
2023-03-20T05:00:28.976Z,19.83
2023-03-20T05:02:58.467Z,24.33
2023-03-20T05:05:27.057Z,21.48
2023-03-20T05:07:55.303Z,25.67
2023-03-20T05:10:23.425Z,27.85
2023-03-20T05:12:51.582Z,24.02
2023-03-20T05:15:19.721Z,27.45
2023-03-20T05:17:50.531Z,27.15
2023-03-20T05:20:21.561Z,26.50
2023-03-20T05:22:51.376Z,27.38
2023-03-20T05:25:19.550Z,25.67
2023-03-20T05:27:48.067Z,20.95
2023-03-20T05:30:16.868Z,21.00
2023-03-20T05:32:44.970Z,23.65
2023-03-20T05:35:13.446Z,25.30
2023-03-20T05:37:42.905Z,23.40
2023-03-20T05:40:13.581Z,30.40
2023-03-20T05:42:41.612Z,19.55
2023-03-20T05:45:10.626Z,23.90
2023-03-20T05:47:38.699Z,19.90
2023-03-20T05:50:07.437Z,21.58
2023-03-20T05:52:35.711Z,16.17
2023-03-20T05:55:05.791Z,18.48
2023-03-20T05:57:33.821Z,21.25
2023-03-20T06:00:01.880Z,23.92
2023-03-20T06:02:29.927Z,20.48
2023-03-20T06:04:58.074Z,22.23
2023-03-20T06:07:26.172Z,27.23
2023-03-20T06:09:54.250Z,28.58
2023-03-20T06:12:24.044Z,24.85
2023-03-20T06:14:52.087Z,29.00
2023-03-20T06:17:20.304Z,28.52
2023-03-20T06:19:48.417Z,29.63
2023-03-20T06:22:16.496Z,37.92
2023-03-20T06:24:44.665Z,29.08
2023-03-20T06:27:12.800Z,28.67
2023-03-20T06:29:42.201Z,28.08
2023-03-20T06:32:12.296Z,30.88
2023-03-20T06:34:40.364Z,36.42
2023-03-20T06:37:08.453Z,30.83
2023-03-20T06:39:36.844Z,29.73
2023-03-20T06:42:05.101Z,28.42
2023-03-20T06:44:33.152Z,30.30
2023-03-20T06:47:02.596Z,29.75
2023-03-20T06:49:30.701Z,29.65
2023-03-20T06:51:59.372Z,26.58
2023-03-20T06:54:28.049Z,24.20
2023-03-20T06:56:56.139Z,25.17
2023-03-20T06:59:24.582Z,22.15
2023-03-20T07:01:52.726Z,22.95
2023-03-20T07:04:22.342Z,21.63
2023-03-20T07:09:18.638Z,20.98
2023-03-20T07:11:46.902Z,21.60
2023-03-20T07:14:15.005Z,22.15
2023-03-20T07:16:43.090Z,14.90
2023-03-20T07:19:13.137Z,16.90
2023-03-20T07:21:42.661Z,16.35
2023-03-20T07:26:38.659Z,15.95
2023-03-20T07:29:06.746Z,16.63
2023-03-20T07:31:34.864Z,14.15
2023-03-20T07:34:02.971Z,15.75
2023-03-20T07:36:31.014Z,17.50
2023-03-20T07:39:00.711Z,13.50
2023-03-20T07:41:28.812Z,17.10
2023-03-20T07:43:56.862Z,13.52
2023-03-20T07:46:25.465Z,11.55
2023-03-20T07:48:53.788Z,9.57
2023-03-20T07:51:21.839Z,9.45
2023-03-20T07:53:49.906Z,8.02
2023-03-20T07:56:19.335Z,5.18
2023-03-20T08:01:15.294Z,5.95
2023-03-20T08:03:43.577Z,5.10
2023-03-20T08:06:11.774Z,6.07
2023-03-20T08:08:40.549Z,3.50
2023-03-20T08:11:08.818Z,4.68
2023-03-20T08:13:38.282Z,4.93
2023-03-20T08:18:34.910Z,4.50
2023-03-20T08:21:03.065Z,3.45
2023-03-20T08:23:31.217Z,3.60
2023-03-20T08:25:59.279Z,3.00
2023-03-20T08:28:45.954Z,4.93
2023-03-20T08:31:17.717Z,6.40
2023-03-20T08:33:46.386Z,3.92
2023-03-20T08:36:15.935Z,3.97
2023-03-20T08:38:44.506Z,3.00
2023-03-20T08:41:12.610Z,4.93
2023-03-20T08:43:41.056Z,3.40
2023-03-20T08:46:09.794Z,3.90
2023-03-20T08:48:39.354Z,10.50
2023-03-20T08:53:35.603Z,6.40
2023-03-20T08:56:03.674Z,5.10
2023-03-20T08:58:31.792Z,4.43
2023-03-20T09:01:05.342Z,4.57
2023-03-20T09:03:33.441Z,4.20
2023-03-20T09:06:02.904Z,5.25
2023-03-20T09:08:32.097Z,7.43
2023-03-20T09:11:00.566Z,4.90
2023-03-20T09:13:28.630Z,3.80
2023-03-20T09:15:58.185Z,4.90
2023-03-20T09:18:26.987Z,3.88
2023-03-20T09:20:56.491Z,3.20
2023-03-20T09:23:26.018Z,4.18
2023-03-20T09:28:21.961Z,45.38
2023-03-20T09:30:50.097Z,30.88
2023-03-20T09:33:18.756Z,3.83
2023-03-20T09:35:46.985Z,5.53
2023-03-20T09:38:15.591Z,4.90
2023-03-20T09:40:53.209Z,5.30
2023-03-20T09:43:34.117Z,3.72
2023-03-20T09:46:13.976Z,1.90
2023-03-20T09:48:47.530Z,5.35
2023-03-20T09:51:25.188Z,3.95
2023-03-20T09:53:59.288Z,5.50
2023-03-20T09:56:31.966Z,8.57
2023-03-20T09:59:02.426Z,7.10
2023-03-20T10:01:34.182Z,3.50
2023-03-20T10:04:07.632Z,3.75
2023-03-20T10:06:36.003Z,7.03
2023-03-20T10:09:13.083Z,2.72
2023-03-20T10:11:57.165Z,9.07
2023-03-20T10:14:34.884Z,5.03
2023-03-20T10:17:14.897Z,5.38
2023-03-20T10:19:47.220Z,3.80
2023-03-20T10:22:25.303Z,5.32
2023-03-20T10:24:57.725Z,4.05
2023-03-20T10:27:32.736Z,3.13
2023-03-20T10:30:20.935Z,4.07
2023-03-20T10:32:55.654Z,3.53
2023-03-20T10:35:29.702Z,3.03
2023-03-20T10:38:11.425Z,4.13
2023-03-20T10:40:41.688Z,4.32
2023-03-20T10:43:17.809Z,3.70
2023-03-20T10:45:49.277Z,4.03
2023-03-20T10:48:22.479Z,4.82
2023-03-20T10:50:54.709Z,4.22
2023-03-20T10:53:30.404Z,2.88
2023-03-20T10:56:01.833Z,2.60
2023-03-20T10:58:35.098Z,4.15
2023-03-20T11:01:03.483Z,2.53
2023-03-20T11:03:32.869Z,3.10
2023-03-20T11:06:09.706Z,6.78
2023-03-20T11:08:41.220Z,4.65
2023-03-20T11:11:09.880Z,4.60
2023-03-20T11:13:42.555Z,3.78
2023-03-20T11:16:21.275Z,1.75
2023-03-20T11:18:50.531Z,2.50
2023-03-20T11:23:49.404Z,3.25
2023-03-20T11:26:19.923Z,5.15
2023-03-20T11:28:53.161Z,3.15
2023-03-20T11:31:26.934Z,5.55
2023-03-20T11:34:10.985Z,3.15
2023-03-20T11:36:41.302Z,2.38
2023-03-20T11:39:15.245Z,7.80
2023-03-20T11:41:49.099Z,13.65
2023-03-20T11:44:27.959Z,8.02
2023-03-20T11:46:57.882Z,6.28
2023-03-20T11:49:29.259Z,4.82
2023-03-20T11:52:01.930Z,6.15
2023-03-20T11:54:31.281Z,3.38
2023-03-20T11:59:34.038Z,4.20
2023-03-20T12:02:03.955Z,3.45
2023-03-20T12:04:34.656Z,2.95
2023-03-20T12:07:11.105Z,3.38
2023-03-20T12:09:43.754Z,7.68
2023-03-20T12:12:25.406Z,4.97
2023-03-20T12:15:02.224Z,3.25
2023-03-20T12:17:43.529Z,3.75
2023-03-20T12:20:29.036Z,4.28
2023-03-20T12:23:03.883Z,3.42
2023-03-20T12:25:39.372Z,3.63
2023-03-20T12:28:15.418Z,4.03
2023-03-20T12:30:55.848Z,4.82
2023-03-20T12:33:44.038Z,6.43
2023-03-20T12:36:16.566Z,3.22
2023-03-20T12:38:46.432Z,3.40
2023-03-20T12:41:17.459Z,2.50
2023-03-20T12:44:01.113Z,2.55
2023-03-20T12:46:36.422Z,3.72
2023-03-20T12:49:14.073Z,3.13
2023-03-20T12:51:53.367Z,3.42
2023-03-20T12:57:05.676Z,3.03
2023-03-20T12:59:45.906Z,2.55
2023-03-20T13:02:26.836Z,3.42
2023-03-20T13:05:03.054Z,4.35
2023-03-20T13:07:44.377Z,2.95
2023-03-20T13:10:21.724Z,3.10
2023-03-20T13:13:01.803Z,2.30
2023-03-20T13:15:42.227Z,4.30
2023-03-20T13:18:20.599Z,4.18
2023-03-20T13:20:52.813Z,7.57
2023-03-20T13:23:27.260Z,4.07
2023-03-20T13:26:11.517Z,3.50
2023-03-20T13:28:48.523Z,4.70
2023-03-20T13:31:27.085Z,4.03
2023-03-20T13:34:03.566Z,5.32
2023-03-20T13:36:50.896Z,3.75
2023-03-20T13:39:23.652Z,5.10
2023-03-20T13:41:52.156Z,5.45
2023-03-20T13:44:24.016Z,4.60
2023-03-20T13:46:55.192Z,1.80
2023-03-20T13:49:28.830Z,2.15
2023-03-20T13:52:02.437Z,1.60
2023-03-20T13:54:50.609Z,1.30
2023-03-20T13:57:27.977Z,2.90
2023-03-20T14:00:03.006Z,1.50
2023-03-20T14:02:42.004Z,1.90
2023-03-20T14:05:18.636Z,1.70
2023-03-20T14:07:49.448Z,3.03
2023-03-20T14:10:39.435Z,2.60
2023-03-20T14:13:14.454Z,8.55
2023-03-20T14:15:50.236Z,6.88
2023-03-20T14:18:22.272Z,4.53
2023-03-20T14:20:57.486Z,5.25
2023-03-20T14:23:35.556Z,4.07
2023-03-20T14:26:09.318Z,5.68
2023-03-20T14:28:54.600Z,7.35
2023-03-20T14:31:26.307Z,7.05
2023-03-20T14:34:09.362Z,5.82
2023-03-20T14:36:53.741Z,5.95
2023-03-20T14:39:46.054Z,4.03
2023-03-20T14:42:38.791Z,3.13
2023-03-20T14:45:39.709Z,3.13
2023-03-20T14:48:26.126Z,3.60
2023-03-20T14:51:10.426Z,2.55
2023-03-20T14:53:41.690Z,2.40
2023-03-20T14:56:12.552Z,3.38
2023-03-20T14:58:54.396Z,5.63
2023-03-20T15:01:54.414Z,4.68
2023-03-20T15:04:29.514Z,4.20
2023-03-20T15:07:00.517Z,3.78
2023-03-20T15:09:32.454Z,5.32
2023-03-20T15:12:04.368Z,5.10
2023-03-20T15:14:39.279Z,2.50
2023-03-20T15:17:07.334Z,2.75
2023-03-20T15:19:41.183Z,3.08
2023-03-20T15:22:17.483Z,3.47
2023-03-20T15:24:55.797Z,4.30
2023-03-20T15:27:29.439Z,7.45
2023-03-20T15:29:58.690Z,6.75
2023-03-20T15:32:26.859Z,6.35
2023-03-20T15:34:54.993Z,14.73
2023-03-20T15:37:25.488Z,11.27
2023-03-20T15:39:59.160Z,9.35
2023-03-20T15:42:28.070Z,10.77
2023-03-20T15:44:57.465Z,9.70
2023-03-20T15:47:26.796Z,11.00
2023-03-20T15:49:56.695Z,8.95
2023-03-20T15:52:31.955Z,6.43
2023-03-20T15:55:06.407Z,8.07
2023-03-20T15:57:37.382Z,8.15
2023-03-20T16:00:08.077Z,6.97
2023-03-20T16:02:38.178Z,5.95
2023-03-20T16:05:10.418Z,9.68
2023-03-20T16:07:38.600Z,13.93
2023-03-20T16:10:19.143Z,16.02
2023-03-20T16:12:50.287Z,12.88
2023-03-20T16:15:19.709Z,10.40
2023-03-20T16:17:48.628Z,10.65
2023-03-20T16:20:17.876Z,6.45
2023-03-20T16:22:47.259Z,9.75
2023-03-20T16:25:18.752Z,7.13
2023-03-20T16:27:50.423Z,7.93
2023-03-20T16:30:24.433Z,8.73
2023-03-20T16:32:59.424Z,9.25
2023-03-20T16:35:31.013Z,8.75
2023-03-20T16:38:00.741Z,9.88
2023-03-20T16:40:34.907Z,10.23
2023-03-20T16:43:12.992Z,14.95
2023-03-20T16:45:44.929Z,7.65
2023-03-20T16:48:26.070Z,6.05
2023-03-20T16:50:59.990Z,7.55
2023-03-20T16:53:32.102Z,7.28
2023-03-20T16:56:04.952Z,5.28
2023-03-20T16:58:35.127Z,6.75
2023-03-20T17:01:06.156Z,6.10
2023-03-20T17:03:38.109Z,6.30
2023-03-20T17:06:10.878Z,8.43
2023-03-20T17:08:43.238Z,9.57
2023-03-20T17:11:15.078Z,8.98
2023-03-20T17:13:43.942Z,9.63
2023-03-20T17:16:16.975Z,8.82
2023-03-20T17:18:46.796Z,10.05
2023-03-20T17:21:15.170Z,12.02
2023-03-20T17:23:43.237Z,12.65
2023-03-20T17:26:14.023Z,12.10
2023-03-20T17:28:42.512Z,11.93
2023-03-20T17:31:13.999Z,12.73
2023-03-20T17:33:42.116Z,19.85
2023-03-20T17:36:16.917Z,20.00
2023-03-20T17:38:45.019Z,28.58
2023-03-20T17:41:16.335Z,22.73
2023-03-20T17:43:44.753Z,16.75
2023-03-20T17:46:19.029Z,14.30
2023-03-20T17:48:47.851Z,10.52
2023-03-20T17:51:15.971Z,9.30
2023-03-20T17:53:44.061Z,10.85
2023-03-20T17:56:16.434Z,7.72
2023-03-20T17:58:45.672Z,7.65
2023-03-20T18:01:14.274Z,7.00
2023-03-20T18:03:42.532Z,6.73
2023-03-20T18:06:17.055Z,12.68
2023-03-20T18:08:45.416Z,8.32
2023-03-20T18:11:14.854Z,13.48
2023-03-20T18:13:43.295Z,15.60
2023-03-20T18:16:17.590Z,20.60
2023-03-20T18:18:46.143Z,20.17
2023-03-20T18:21:16.675Z,26.65
2023-03-20T18:23:44.931Z,26.25
2023-03-20T18:26:20.593Z,24.27
2023-03-20T18:28:49.013Z,19.85
2023-03-20T18:31:18.938Z,23.92
2023-03-20T18:33:48.511Z,23.20
2023-03-20T18:41:14.059Z,27.05
2023-03-20T18:43:44.660Z,24.27
2023-03-20T18:46:15.195Z,21.77
2023-03-20T18:48:44.195Z,20.70
2023-03-20T18:51:12.652Z,20.15
2023-03-20T18:53:41.695Z,21.58
2023-03-20T18:56:15.400Z,17.58
2023-03-20T18:58:45.651Z,15.82
2023-03-20T19:01:15.547Z,19.00
2023-03-20T19:03:44.705Z,14.07
2023-03-20T19:06:15.522Z,18.00
2023-03-20T19:08:44.353Z,19.00
2023-03-20T19:11:17.845Z,10.73
2023-03-20T19:13:51.010Z,12.52
2023-03-20T19:16:25.349Z,16.40
2023-03-20T19:18:54.185Z,17.25
2023-03-20T19:21:25.984Z,13.25
2023-03-20T19:23:55.192Z,12.80
2023-03-20T19:26:25.936Z,13.40
2023-03-20T19:28:57.227Z,12.65
2023-03-20T19:31:26.435Z,16.77
2023-03-20T19:33:56.008Z,20.67
2023-03-20T19:38:55.731Z,16.60
2023-03-20T19:41:24.138Z,20.77
2023-03-20T19:43:55.231Z,23.70
2023-03-20T19:46:39.146Z,22.25
2023-03-20T19:49:19.684Z,20.73
2023-03-20T19:51:48.439Z,19.10
2023-03-20T19:54:16.662Z,24.00
2023-03-20T19:56:44.778Z,19.08
2023-03-20T19:59:16.198Z,18.67
2023-03-20T20:01:46.898Z,16.40
2023-03-20T20:04:16.134Z,15.93
2023-03-20T20:06:47.158Z,14.18
2023-03-20T20:09:16.131Z,14.00
2023-03-20T20:11:44.256Z,10.63
2023-03-20T20:14:14.981Z,13.73
2023-03-20T20:16:45.344Z,12.07
2023-03-20T20:19:14.962Z,14.90
2023-03-20T20:24:31.474Z,23.13
2023-03-20T20:27:15.949Z,29.25
2023-03-20T20:29:46.922Z,32.58
2023-03-20T20:32:15.294Z,27.38
2023-03-20T20:40:24.742Z,18.55
2023-03-20T20:42:56.118Z,16.40
2023-03-20T20:45:26.376Z,14.85
2023-03-20T20:47:55.286Z,11.13
2023-03-20T20:50:28.319Z,11.88
2023-03-20T20:52:56.916Z,14.65
2023-03-20T20:55:25.658Z,15.88
2023-03-20T20:57:55.544Z,15.68
2023-03-20T21:00:37.134Z,20.48
2023-03-20T21:03:09.596Z,18.20
2023-03-20T21:05:42.861Z,15.80
2023-03-20T21:08:11.972Z,19.23
2023-03-20T21:10:40.207Z,18.25
2023-03-20T21:13:08.550Z,14.77
2023-03-20T21:15:37.329Z,13.23
2023-03-20T21:18:05.796Z,14.20
2023-03-20T21:20:34.573Z,14.10
2023-03-20T21:23:04.031Z,9.20
2023-03-20T21:25:40.017Z,14.77
2023-03-20T21:28:09.898Z,15.05
2023-03-20T21:30:44.260Z,16.40
2023-03-20T21:33:25.085Z,17.67
2023-03-20T21:35:54.411Z,16.05
2023-03-20T21:43:40.775Z,18.15
2023-03-20T22:03:10.383Z,18.10
2023-03-20T22:06:19.482Z,16.75
2023-03-20T22:17:51.107Z,18.45
2023-03-20T22:26:05.488Z,17.58
2023-03-20T22:37:30.142Z,19.88
2023-03-20T22:40:22.623Z,16.77
2023-03-20T22:45:04.022Z,16.98
2023-03-20T22:47:32.623Z,14.75
2023-03-20T22:50:00.714Z,14.10
2023-03-20T22:52:42.030Z,13.90
2023-03-20T22:55:13.961Z,16.30
2023-03-20T22:57:52.971Z,16.80
2023-03-20T23:00:29.234Z,16.33
2023-03-20T23:05:42.318Z,18.42
2023-03-20T23:08:12.793Z,16.02
2023-03-20T23:10:44.281Z,16.58
2023-03-20T23:13:12.483Z,16.75
2023-03-20T23:15:41.935Z,16.15
2023-03-20T23:18:10.611Z,18.77
2023-03-20T23:20:38.810Z,19.20
2023-03-20T23:23:06.983Z,18.05
2023-03-20T23:25:40.016Z,16.55
2023-03-20T23:28:09.320Z,18.33
2023-03-20T23:30:46.570Z,19.25
2023-03-20T23:33:17.518Z,20.57
2023-03-20T23:35:46.338Z,15.18
2023-03-20T23:38:14.444Z,16.00
2023-03-20T23:40:42.487Z,15.82
2023-03-20T23:43:10.605Z,15.90
2023-03-20T23:45:38.899Z,13.98
2023-03-20T23:48:07.319Z,15.85
2023-03-20T23:50:51.853Z,17.63
2023-03-20T23:53:21.411Z,16.67
2023-03-20T23:55:51.352Z,15.70
2023-03-20T23:58:20.547Z,16.80
